createdAt,value
2023-02-24T00:02:01.133Z,9.50
2023-02-24T00:04:34.011Z,9.30
2023-02-24T00:07:01.149Z,9.10
2023-02-24T00:09:30.238Z,9.10
2023-02-24T00:12:06.131Z,9.10
2023-02-24T00:14:36.564Z,9.30
2023-02-24T00:17:03.403Z,9.30
2023-02-24T00:19:32.561Z,9.20
2023-02-24T00:22:00.678Z,9.10
2023-02-24T00:24:28.112Z,9.20
2023-02-24T00:26:57.044Z,9.40
2023-02-24T00:29:24.192Z,9.30
2023-02-24T00:32:00.155Z,9.30
2023-02-24T00:34:28.803Z,9.20
2023-02-24T00:36:57.207Z,9.20
2023-02-24T00:39:35.208Z,9.20
2023-02-24T00:42:06.688Z,9.20
2023-02-24T00:44:37.733Z,9.20
2023-02-24T00:47:06.911Z,9.20
2023-02-24T00:49:35.785Z,9.00
2023-02-24T00:52:08.018Z,8.90
2023-02-24T00:54:37.504Z,9.00
2023-02-24T00:57:04.170Z,8.90
2023-02-24T00:59:31.052Z,9.00
2023-02-24T01:01:57.958Z,9.10
2023-02-24T01:04:24.726Z,9.10
2023-02-24T01:06:59.959Z,9.10
2023-02-24T01:09:29.188Z,9.20
2023-02-24T01:12:16.190Z,9.20
2023-02-24T01:14:47.541Z,9.10
2023-02-24T01:17:16.066Z,9.00
2023-02-24T01:19:44.641Z,9.00
2023-02-24T01:22:15.151Z,9.10
2023-02-24T01:24:44.200Z,9.00
2023-02-24T01:27:17.608Z,8.90
2023-02-24T01:29:45.518Z,9.10
2023-02-24T01:32:19.934Z,9.00
2023-02-24T01:34:51.235Z,9.00
2023-02-24T01:37:19.247Z,9.10
2023-02-24T01:39:46.585Z,9.00
2023-02-24T01:42:21.360Z,9.10
2023-02-24T01:44:48.109Z,9.00
2023-02-24T01:47:20.802Z,9.00
2023-02-24T01:49:51.426Z,9.20
2023-02-24T01:52:24.065Z,9.20
2023-02-24T01:55:06.430Z,8.90
2023-02-24T01:57:35.728Z,8.80
2023-02-24T02:00:10.944Z,8.80
2023-02-24T02:02:46.550Z,8.80
2023-02-24T02:05:14.580Z,8.90
2023-02-24T02:07:43.370Z,9.00
2023-02-24T02:10:11.403Z,9.00
2023-02-24T02:12:44.687Z,9.00
2023-02-24T02:15:20.114Z,8.80
2023-02-24T02:18:05.443Z,8.80
2023-02-24T02:20:53.668Z,8.80
2023-02-24T02:23:28.612Z,8.80
2023-02-24T02:26:24.004Z,8.70
2023-02-24T02:29:13.144Z,8.70
2023-02-24T02:32:07.082Z,8.70
2023-02-24T02:35:11.598Z,8.70
2023-02-24T02:37:43.538Z,8.80
2023-02-24T02:40:37.492Z,8.70
2023-02-24T02:43:19.730Z,8.70
2023-02-24T02:45:55.878Z,8.70
2023-02-24T02:48:33.921Z,8.70
2023-02-24T02:51:24.909Z,8.90
2023-02-24T02:54:10.146Z,8.80
2023-02-24T02:56:42.550Z,8.80
2023-02-24T02:59:14.749Z,8.80
2023-02-24T03:01:43.840Z,8.90
2023-02-24T03:04:17.049Z,8.70
2023-02-24T03:06:48.650Z,8.60
2023-02-24T03:09:22.646Z,8.80
2023-02-24T03:11:59.622Z,8.80
2023-02-24T03:14:33.130Z,8.70
2023-02-24T03:17:03.194Z,8.70
2023-02-24T03:19:37.301Z,8.60
2023-02-24T03:22:13.520Z,8.60
2023-02-24T03:24:42.174Z,8.50
2023-02-24T03:27:49.576Z,8.50
2023-02-24T03:30:35.257Z,8.60
2023-02-24T03:33:23.653Z,8.60
2023-02-24T03:35:53.871Z,8.50
2023-02-24T03:38:23.912Z,8.30
2023-02-24T03:40:51.836Z,8.40
2023-02-24T03:43:30.628Z,8.50
2023-02-24T03:46:01.188Z,8.60
2023-02-24T03:48:29.432Z,8.60
2023-02-24T03:50:59.358Z,8.70
2023-02-24T03:54:06.037Z,8.70
2023-02-24T03:56:58.798Z,8.60
2023-02-24T03:59:52.861Z,8.50
2023-02-24T04:02:30.782Z,8.40
2023-02-24T04:05:15.068Z,8.40
2023-02-24T04:08:09.644Z,8.40
2023-02-24T04:10:52.659Z,8.40
2023-02-24T04:13:28.250Z,8.30
2023-02-24T04:16:01.582Z,8.30
2023-02-24T04:18:32.199Z,8.50
2023-02-24T04:21:02.935Z,8.60
2023-02-24T04:23:33.958Z,8.50
2023-02-24T04:26:01.704Z,8.40
2023-02-24T04:28:30.311Z,8.60
2023-02-24T04:31:05.816Z,8.70
2023-02-24T04:33:34.618Z,8.70
2023-02-24T04:36:01.335Z,8.70
2023-02-24T04:38:31.222Z,8.70
2023-02-24T04:40:57.913Z,8.60
2023-02-24T04:43:24.637Z,8.60
2023-02-24T04:45:51.624Z,8.50
2023-02-24T04:48:20.158Z,8.50
2023-02-24T04:50:46.901Z,8.60
2023-02-24T04:53:15.972Z,8.60
2023-02-24T04:55:48.559Z,8.70
2023-02-24T04:58:21.136Z,8.70
2023-02-24T05:00:52.352Z,8.60
2023-02-24T05:03:20.823Z,8.60
2023-02-24T05:05:52.846Z,8.50
2023-02-24T05:08:19.829Z,8.40
2023-02-24T05:10:47.560Z,8.60
2023-02-24T05:13:27.080Z,8.60
2023-02-24T05:15:59.546Z,8.60
2023-02-24T05:18:29.497Z,8.50
2023-02-24T05:21:15.501Z,8.50
2023-02-24T05:23:45.165Z,8.70
2023-02-24T05:26:18.908Z,8.70
2023-02-24T05:28:52.185Z,8.60
2023-02-24T05:31:22.777Z,8.50
2023-02-24T05:33:54.563Z,8.70
2023-02-24T05:36:22.508Z,8.90
2023-02-24T05:38:57.940Z,8.60
2023-02-24T05:41:32.476Z,8.60
2023-02-24T05:44:04.699Z,8.50
2023-02-24T05:46:37.182Z,8.40
2023-02-24T05:49:12.416Z,8.50
2023-02-24T05:51:43.174Z,8.50
2023-02-24T05:54:13.104Z,8.50
2023-02-24T05:56:44.332Z,8.50
2023-02-24T05:59:13.128Z,8.50
2023-02-24T06:01:41.609Z,8.60
2023-02-24T06:04:09.486Z,8.90
2023-02-24T06:06:40.683Z,8.70
2023-02-24T06:09:11.010Z,8.40
2023-02-24T06:11:38.963Z,8.40
2023-02-24T06:14:07.102Z,8.40
2023-02-24T06:16:35.263Z,8.30
2023-02-24T06:19:02.577Z,8.30
2023-02-24T06:21:29.942Z,8.30
2023-02-24T06:24:00.595Z,8.20
2023-02-24T06:26:33.780Z,8.30
2023-02-24T06:29:00.784Z,8.30
2023-02-24T06:31:27.881Z,8.30
2023-02-24T06:33:54.855Z,8.20
2023-02-24T06:36:21.793Z,8.20
2023-02-24T06:38:52.604Z,8.10
2023-02-24T06:41:19.748Z,8.20
2023-02-24T06:43:48.155Z,8.20
2023-02-24T06:46:16.380Z,8.40
2023-02-24T06:48:43.571Z,8.40
2023-02-24T06:51:15.803Z,8.70
2023-02-24T06:53:45.554Z,8.70
2023-02-24T06:56:20.161Z,8.80
2023-02-24T06:58:50.523Z,8.50
2023-02-24T07:01:20.395Z,8.30
2023-02-24T07:04:17.908Z,8.30
2023-02-24T07:06:53.138Z,8.20
2023-02-24T07:09:23.245Z,8.30
2023-02-24T07:11:55.889Z,8.50
2023-02-24T07:14:24.512Z,8.50
2023-02-24T07:16:55.470Z,8.40
2023-02-24T07:19:25.565Z,8.40
2023-02-24T07:21:59.832Z,8.60
2023-02-24T07:24:36.337Z,8.60
2023-02-24T07:27:06.218Z,8.60
2023-02-24T07:29:34.270Z,8.90
2023-02-24T07:32:06.521Z,8.80
2023-02-24T07:34:34.057Z,9.00
2023-02-24T07:37:07.721Z,9.10
2023-02-24T07:39:36.915Z,9.00
2023-02-24T07:42:05.026Z,8.80
2023-02-24T07:44:44.420Z,8.60
2023-02-24T07:47:11.101Z,8.60
2023-02-24T07:49:39.540Z,8.70
2023-02-24T07:52:08.066Z,8.70
2023-02-24T07:54:35.038Z,8.80
2023-02-24T07:57:01.672Z,8.80
2023-02-24T07:59:34.142Z,9.10
2023-02-24T08:02:04.749Z,8.90
2023-02-24T08:04:39.541Z,8.70
2023-02-24T08:07:12.939Z,8.60
2023-02-24T08:09:46.232Z,8.80
2023-02-24T08:12:21.201Z,8.90
2023-02-24T08:14:53.384Z,8.90
2023-02-24T08:17:22.089Z,8.80
2023-02-24T08:20:00.886Z,8.70
2023-02-24T08:22:35.820Z,8.90
2023-02-24T08:25:05.865Z,9.00
2023-02-24T08:27:38.715Z,9.20
2023-02-24T08:30:07.617Z,9.20
2023-02-24T08:32:43.708Z,9.20
2023-02-24T08:35:16.723Z,9.10
2023-02-24T08:37:48.845Z,9.10
2023-02-24T08:40:31.561Z,9.00
2023-02-24T08:43:19.336Z,9.20
2023-02-24T08:45:50.873Z,9.20
2023-02-24T08:48:26.591Z,9.40
2023-02-24T08:50:57.229Z,9.30
2023-02-24T08:53:29.618Z,9.30
2023-02-24T08:55:56.294Z,9.20
2023-02-24T08:58:27.086Z,9.30
2023-02-24T09:00:59.126Z,9.30
2023-02-24T09:03:28.181Z,9.20
2023-02-24T09:06:05.089Z,9.20
2023-02-24T09:08:38.434Z,9.00
2023-02-24T09:11:14.521Z,9.00
2023-02-24T09:13:51.815Z,9.20
2023-02-24T09:16:23.460Z,9.10
2023-02-24T09:19:09.956Z,9.20
2023-02-24T09:21:50.243Z,9.20
2023-02-24T09:24:27.149Z,9.10
2023-02-24T09:27:00.039Z,9.10
2023-02-24T09:29:33.723Z,9.00
2023-02-24T09:32:06.389Z,9.10
2023-02-24T09:34:43.889Z,9.20
2023-02-24T09:37:24.865Z,9.20
2023-02-24T09:39:55.835Z,9.30
2023-02-24T09:42:46.230Z,9.60
2023-02-24T09:45:32.857Z,9.70
2023-02-24T09:48:16.649Z,9.80
2023-02-24T09:51:02.546Z,9.90
2023-02-24T09:53:41.352Z,10.00
2023-02-24T09:56:26.825Z,10.30
2023-02-24T09:59:14.819Z,10.50
2023-02-24T10:01:47.949Z,10.40
2023-02-24T10:04:36.196Z,10.30
2023-02-24T10:07:23.506Z,10.10
2023-02-24T10:10:01.888Z,9.90
2023-02-24T10:12:40.300Z,9.80
2023-02-24T10:15:19.128Z,9.90
2023-02-24T10:17:57.163Z,10.00
2023-02-24T10:20:31.042Z,10.10
2023-02-24T10:23:10.409Z,10.30
2023-02-24T10:25:54.568Z,10.30
2023-02-24T10:28:45.911Z,10.50
2023-02-24T10:31:27.745Z,10.80
2023-02-24T10:34:00.984Z,11.00
2023-02-24T10:36:36.282Z,11.40
2023-02-24T10:39:15.527Z,11.70
2023-02-24T10:41:57.197Z,11.60
2023-02-24T10:44:35.802Z,11.70
2023-02-24T10:47:12.280Z,13.40
2023-02-24T10:49:59.638Z,15.20
2023-02-24T10:52:37.420Z,17.00
2023-02-24T10:55:27.875Z,18.30
2023-02-24T10:58:06.177Z,18.70
2023-02-24T11:01:12.914Z,17.90
2023-02-24T11:03:48.019Z,17.00
2023-02-24T11:06:41.015Z,16.30
2023-02-24T11:09:19.598Z,17.50
2023-02-24T11:12:06.270Z,19.00
2023-02-24T11:15:06.093Z,20.30
2023-02-24T11:17:33.325Z,20.60
2023-02-24T11:20:23.772Z,20.30
2023-02-24T11:22:52.652Z,21.00
2023-02-24T11:25:41.782Z,21.50
2023-02-24T11:28:48.783Z,21.20
2023-02-24T11:31:34.323Z,19.60
2023-02-24T11:34:13.105Z,18.20
2023-02-24T11:36:54.365Z,16.30
2023-02-24T11:39:34.045Z,15.60
2023-02-24T11:42:07.530Z,14.90
2023-02-24T11:44:46.505Z,14.40
2023-02-24T11:47:20.599Z,14.00
2023-02-24T11:49:53.209Z,13.70
2023-02-24T11:52:30.278Z,13.40
2023-02-24T11:55:00.540Z,12.90
2023-02-24T11:57:37.565Z,12.60
2023-02-24T12:00:20.004Z,12.40
2023-02-24T12:02:53.752Z,12.30
2023-02-24T12:05:27.027Z,11.80
2023-02-24T12:07:59.488Z,11.60
2023-02-24T12:10:31.610Z,11.50
2023-02-24T12:13:05.804Z,11.30
2023-02-24T12:15:40.286Z,11.10
2023-02-24T12:18:13.905Z,11.00
2023-02-24T12:20:59.366Z,11.10
2023-02-24T12:23:34.092Z,11.30
2023-02-24T12:26:17.626Z,11.20
2023-02-24T12:28:53.095Z,11.40
2023-02-24T12:31:32.148Z,11.70
2023-02-24T12:34:11.873Z,12.00
2023-02-24T12:36:55.063Z,11.90
2023-02-24T12:39:53.734Z,11.50
2023-02-24T12:42:55.828Z,10.90
2023-02-24T12:45:26.895Z,10.80
2023-02-24T12:48:02.572Z,11.50
2023-02-24T12:50:42.075Z,11.60
2023-02-24T12:53:32.211Z,12.30
2023-02-24T12:56:24.246Z,12.20
2023-02-24T12:58:56.301Z,12.60
2023-02-24T13:01:43.198Z,12.90
2023-02-24T13:04:15.757Z,12.70
2023-02-24T13:07:06.992Z,12.70
2023-02-24T13:09:48.757Z,12.40
2023-02-24T13:12:15.515Z,12.40
2023-02-24T13:14:44.027Z,12.50
2023-02-24T13:17:10.655Z,12.40
2023-02-24T13:19:43.235Z,12.20
2023-02-24T13:22:13.089Z,11.60
2023-02-24T13:24:56.191Z,11.20
2023-02-24T13:27:37.262Z,11.00
2023-02-24T13:30:15.623Z,10.90
2023-02-24T13:32:46.431Z,11.20
2023-02-24T13:35:16.087Z,11.40
2023-02-24T13:37:51.028Z,11.70
2023-02-24T13:40:23.993Z,12.30
2023-02-24T13:42:57.181Z,12.80
2023-02-24T13:45:33.724Z,12.90
2023-02-24T13:48:39.153Z,13.00
2023-02-24T13:51:33.836Z,13.20
2023-02-24T13:54:06.618Z,13.60
2023-02-24T13:56:55.326Z,13.70
2023-02-24T13:59:47.598Z,13.50
2023-02-24T14:02:25.839Z,13.20
2023-02-24T14:04:55.372Z,12.90
2023-02-24T14:07:25.351Z,12.40
2023-02-24T14:09:59.199Z,11.90
2023-02-24T14:12:29.454Z,11.70
2023-02-24T14:14:56.991Z,11.60
2023-02-24T14:17:36.678Z,11.60
2023-02-24T14:20:09.426Z,11.70
2023-02-24T14:22:44.262Z,11.60
2023-02-24T14:25:11.988Z,11.70
2023-02-24T14:27:39.973Z,11.60
2023-02-24T14:30:08.308Z,11.30
2023-02-24T14:32:35.278Z,11.00
2023-02-24T14:35:02.123Z,11.00
2023-02-24T14:37:31.021Z,11.00
2023-02-24T14:39:59.686Z,11.10
2023-02-24T14:42:27.987Z,11.20
2023-02-24T14:44:57.765Z,11.20
2023-02-24T14:47:28.611Z,11.20
2023-02-24T14:49:59.627Z,11.20
2023-02-24T14:52:53.042Z,10.70
2023-02-24T14:55:29.873Z,10.30
2023-02-24T14:58:24.527Z,10.10
2023-02-24T15:00:56.504Z,10.20
2023-02-24T15:03:29.676Z,10.20
2023-02-24T15:06:04.198Z,10.50
2023-02-24T15:08:40.309Z,10.60
2023-02-24T15:11:22.055Z,10.70
2023-02-24T15:13:55.076Z,10.80
2023-02-24T15:16:24.466Z,10.90
2023-02-24T15:18:54.173Z,10.90
2023-02-24T15:21:30.296Z,10.80
2023-02-24T15:24:04.908Z,10.80
2023-02-24T15:26:35.389Z,10.90
2023-02-24T15:29:14.059Z,10.80
2023-02-24T15:31:47.114Z,10.40
2023-02-24T15:34:22.102Z,10.40
2023-02-24T15:36:51.369Z,10.60
2023-02-24T15:39:23.569Z,10.50
2023-02-24T15:41:52.179Z,10.50
2023-02-24T15:44:28.074Z,10.20
2023-02-24T15:46:56.864Z,10.00
2023-02-24T15:49:24.108Z,9.90
2023-02-24T15:51:53.583Z,9.80
2023-02-24T15:54:36.622Z,9.80
2023-02-24T15:57:05.291Z,9.90
2023-02-24T15:59:32.113Z,9.90
2023-02-24T16:01:58.781Z,9.90
2023-02-24T16:04:26.745Z,9.90
2023-02-24T16:06:55.224Z,10.00
2023-02-24T16:09:36.627Z,10.10
2023-02-24T16:12:08.045Z,10.00
2023-02-24T16:14:34.996Z,9.90
2023-02-24T16:17:06.494Z,10.00
2023-02-24T16:19:33.137Z,9.80
2023-02-24T16:22:00.170Z,9.80
2023-02-24T16:24:26.793Z,9.70
2023-02-24T16:26:56.041Z,9.80
2023-02-24T16:29:23.210Z,9.90
2023-02-24T16:31:50.156Z,9.90
2023-02-24T16:34:17.037Z,10.00
2023-02-24T16:36:44.194Z,10.20
2023-02-24T16:39:13.964Z,10.10
2023-02-24T16:41:40.976Z,9.90
2023-02-24T16:44:07.892Z,10.00
2023-02-24T16:46:37.925Z,10.10
2023-02-24T16:49:08.151Z,10.20
2023-02-24T16:51:35.420Z,10.20
2023-02-24T16:54:02.303Z,10.20
2023-02-24T16:56:28.968Z,10.10
2023-02-24T16:58:59.654Z,10.00
2023-02-24T17:01:26.580Z,10.00
2023-02-24T17:03:54.119Z,10.10
2023-02-24T17:06:22.552Z,10.10
2023-02-24T17:08:50.541Z,10.00
2023-02-24T17:11:20.525Z,9.90
2023-02-24T17:13:47.323Z,10.00
2023-02-24T17:16:13.962Z,10.00
2023-02-24T17:18:40.636Z,9.80
2023-02-24T17:21:07.743Z,9.50
2023-02-24T17:23:34.784Z,9.40
2023-02-24T17:26:02.262Z,9.30
2023-02-24T17:28:29.269Z,9.20
2023-02-24T17:30:56.248Z,9.30
2023-02-24T17:33:23.227Z,9.40
2023-02-24T17:35:50.104Z,9.50
2023-02-24T17:38:19.673Z,9.60
2023-02-24T17:40:46.603Z,9.60
2023-02-24T17:43:14.024Z,9.60
2023-02-24T17:45:44.601Z,9.60
2023-02-24T17:48:12.619Z,9.60
2023-02-24T17:50:42.190Z,9.60
2023-02-24T17:53:09.048Z,9.70
2023-02-24T17:55:35.723Z,9.70
2023-02-24T17:58:02.431Z,9.60
2023-02-24T18:00:30.214Z,9.50
2023-02-24T18:02:58.065Z,9.60
2023-02-24T18:05:25.174Z,9.70
2023-02-24T18:07:53.411Z,9.80
2023-02-24T18:10:20.691Z,9.70
2023-02-24T18:12:47.446Z,9.70
2023-02-24T18:15:14.303Z,9.50
2023-02-24T18:17:41.910Z,9.30
2023-02-24T18:20:09.751Z,9.20
2023-02-24T18:22:36.464Z,9.30
2023-02-24T18:25:03.373Z,9.30
2023-02-24T18:27:30.060Z,9.30
2023-02-24T18:29:56.709Z,9.20
2023-02-24T18:32:26.878Z,9.30
2023-02-24T18:34:56.785Z,9.40
2023-02-24T18:37:23.512Z,9.30
2023-02-24T18:39:53.213Z,9.20
2023-02-24T18:42:19.989Z,9.10
2023-02-24T18:44:46.666Z,9.30
2023-02-24T18:47:13.363Z,9.40
2023-02-24T18:49:40.003Z,9.30
2023-02-24T18:52:07.464Z,9.30
2023-02-24T18:54:34.514Z,9.30
2023-02-24T18:57:01.936Z,9.20
2023-02-24T18:59:28.796Z,9.10
2023-02-24T19:01:56.834Z,9.10
2023-02-24T19:04:24.716Z,9.20
2023-02-24T19:06:51.475Z,9.30
2023-02-24T19:09:21.486Z,9.30
2023-02-24T19:11:49.574Z,9.00
2023-02-24T19:14:16.700Z,8.80
2023-02-24T19:16:43.686Z,8.70
2023-02-24T19:19:15.946Z,8.60
2023-02-24T19:21:45.385Z,8.60
2023-02-24T19:24:13.653Z,8.50
2023-02-24T19:26:42.025Z,8.60
2023-02-24T19:29:08.857Z,8.50
2023-02-24T19:31:35.995Z,8.50
2023-02-24T19:34:06.859Z,8.70
2023-02-24T19:36:35.884Z,8.70
2023-02-24T19:39:03.094Z,8.50
2023-02-24T19:41:30.213Z,8.60
2023-02-24T19:43:56.887Z,8.50
2023-02-24T19:46:24.086Z,8.50
2023-02-24T19:48:50.983Z,8.60
2023-02-24T19:51:20.648Z,8.60
2023-02-24T19:53:47.813Z,8.10
2023-02-24T19:56:14.574Z,8.20
2023-02-24T19:58:41.307Z,8.00
2023-02-24T20:01:14.250Z,7.90
2023-02-24T20:03:42.590Z,7.70
2023-02-24T20:06:21.919Z,7.20
2023-02-24T20:08:49.213Z,6.70
2023-02-24T20:11:15.990Z,6.80
2023-02-24T20:13:42.681Z,6.80
2023-02-24T20:16:17.984Z,6.70
2023-02-24T20:18:45.276Z,6.70
2023-02-24T20:21:13.408Z,6.60
2023-02-24T20:23:40.850Z,6.70
2023-02-24T20:26:09.644Z,6.60
2023-02-24T20:28:36.523Z,6.50
2023-02-24T20:31:08.953Z,6.40
2023-02-24T20:33:36.064Z,6.40
2023-02-24T20:36:16.017Z,6.40
2023-02-24T20:38:42.985Z,6.50
2023-02-24T20:41:10.071Z,6.40
2023-02-24T20:43:37.029Z,6.40
2023-02-24T20:46:12.598Z,6.70
2023-02-24T20:48:39.376Z,6.80
2023-02-24T20:51:06.856Z,6.80
2023-02-24T20:53:36.447Z,6.70
2023-02-24T20:56:14.305Z,6.70
2023-02-24T20:58:41.498Z,6.60
2023-02-24T21:01:11.645Z,6.60
2023-02-24T21:03:42.036Z,6.70
2023-02-24T21:06:13.559Z,6.50
2023-02-24T21:08:40.892Z,6.40
2023-02-24T21:11:10.890Z,6.50
2023-02-24T21:13:46.325Z,6.50
2023-02-24T21:16:14.084Z,6.60
2023-02-24T21:18:41.971Z,6.60
2023-02-24T21:21:09.852Z,6.40
2023-02-24T21:23:38.201Z,6.30
2023-02-24T21:26:05.955Z,6.10
2023-02-24T21:28:33.182Z,6.10
2023-02-24T21:31:00.561Z,6.20
2023-02-24T21:33:27.558Z,6.20
2023-02-24T21:35:59.442Z,6.40
2023-02-24T21:38:26.383Z,6.40
2023-02-24T21:40:53.379Z,6.20
2023-02-24T21:43:21.613Z,6.10
2023-02-24T21:45:48.286Z,5.80
2023-02-24T21:48:15.383Z,5.50
2023-02-24T21:50:42.489Z,5.40
2023-02-24T21:53:09.149Z,5.40
2023-02-24T21:55:38.486Z,5.60
2023-02-24T21:58:05.806Z,5.50
2023-02-24T22:00:32.914Z,5.40
2023-02-24T22:02:59.690Z,5.50
2023-02-24T22:05:26.938Z,5.60
2023-02-24T22:07:53.631Z,5.60
2023-02-24T22:10:23.739Z,5.70
2023-02-24T22:12:55.296Z,5.80
2023-02-24T22:15:21.943Z,5.90
2023-02-24T22:17:54.009Z,5.70
2023-02-24T22:20:30.202Z,5.60
2023-02-24T22:22:58.255Z,5.60
2023-02-24T22:25:24.910Z,5.70
2023-02-24T22:27:51.672Z,5.70
2023-02-24T22:30:18.453Z,5.70
2023-02-24T22:32:45.166Z,5.70
2023-02-24T22:35:12.120Z,5.80
2023-02-24T22:37:38.962Z,5.90
2023-02-24T22:40:06.855Z,6.00
2023-02-24T22:42:33.547Z,6.00
2023-02-24T22:45:00.424Z,5.90
2023-02-24T22:47:27.125Z,5.80
2023-02-24T22:49:53.810Z,5.60
2023-02-24T22:52:20.679Z,5.50
2023-02-24T22:54:47.653Z,5.60
2023-02-24T22:57:15.337Z,5.60
2023-02-24T22:59:42.309Z,5.70
2023-02-24T23:02:09.828Z,5.90
2023-02-24T23:04:36.638Z,5.80
2023-02-24T23:07:04.530Z,5.80
2023-02-24T23:09:31.502Z,5.80
2023-02-24T23:11:58.287Z,5.80
2023-02-24T23:14:25.317Z,5.90
2023-02-24T23:16:55.626Z,6.00
2023-02-24T23:19:23.111Z,6.00
2023-02-24T23:21:53.087Z,6.00
2023-02-24T23:24:21.879Z,5.90
2023-02-24T23:26:54.430Z,5.90
2023-02-24T23:29:22.772Z,6.00
2023-02-24T23:31:49.831Z,6.20
2023-02-24T23:34:16.690Z,6.10
2023-02-24T23:36:45.887Z,6.10
2023-02-24T23:39:15.252Z,6.10
2023-02-24T23:41:41.973Z,6.00
2023-02-24T23:44:09.325Z,6.10
2023-02-24T23:46:37.084Z,6.10
2023-02-24T23:49:04.775Z,6.10
2023-02-24T23:51:47.106Z,6.00
2023-02-24T23:54:15.886Z,6.00
2023-02-24T23:56:42.622Z,5.80
2023-02-24T23:59:09.340Z,5.80
